createdAt,value
2023-02-18T00:00:40.147Z,15.95
2023-02-18T00:05:45.572Z,12.60
2023-02-18T00:10:51.036Z,12.40
2023-02-18T00:16:04.343Z,12.73
2023-02-18T00:21:10.635Z,9.90
2023-02-18T00:26:18.018Z,11.98
2023-02-18T00:31:27.320Z,15.00
2023-02-18T00:36:33.006Z,9.73
2023-02-18T00:41:38.612Z,10.23
2023-02-18T00:46:48.379Z,9.48
2023-02-18T00:51:53.480Z,10.43
2023-02-18T00:56:58.526Z,9.80
2023-02-18T01:02:07.714Z,10.73
2023-02-18T01:07:13.300Z,10.48
2023-02-18T01:12:18.745Z,10.82
2023-02-18T01:17:26.282Z,13.73
2023-02-18T01:22:33.856Z,10.00
2023-02-18T01:27:38.878Z,10.10
2023-02-18T01:32:46.548Z,10.98
2023-02-18T01:37:51.532Z,10.00
2023-02-18T01:42:56.546Z,9.55
2023-02-18T01:48:04.626Z,8.80
2023-02-18T01:53:09.716Z,9.68
2023-02-18T01:58:16.386Z,12.23
2023-02-18T02:03:24.216Z,11.73
2023-02-18T02:08:29.303Z,9.00
2023-02-18T02:13:46.256Z,10.27
2023-02-18T02:19:02.029Z,10.45
2023-02-18T02:24:32.578Z,9.75
2023-02-18T02:30:04.126Z,9.13
2023-02-18T02:35:13.907Z,9.85
2023-02-18T02:40:26.633Z,9.93
2023-02-18T02:45:39.005Z,9.77
2023-02-18T02:50:49.458Z,9.95
2023-02-18T02:55:55.386Z,12.90
2023-02-18T03:01:13.743Z,8.68
2023-02-18T03:06:46.848Z,9.25
2023-02-18T03:12:00.701Z,11.95
2023-02-18T03:17:07.063Z,10.38
2023-02-18T03:22:16.916Z,8.90
2023-02-18T03:27:25.358Z,9.45
2023-02-18T03:32:31.733Z,9.40
2023-02-18T03:37:41.420Z,10.40
2023-02-18T03:42:46.601Z,9.93
2023-02-18T03:47:51.645Z,8.38
2023-02-18T03:52:59.613Z,10.15
2023-02-18T04:03:09.552Z,12.15
2023-02-18T04:08:17.300Z,9.45
2023-02-18T04:13:22.686Z,11.10
2023-02-18T04:18:27.952Z,10.77
2023-02-18T04:23:35.899Z,10.45
2023-02-18T04:28:40.965Z,11.55
2023-02-18T04:33:45.992Z,11.07
2023-02-18T04:38:53.784Z,10.98
2023-02-18T04:43:59.801Z,9.32
2023-02-18T04:49:04.988Z,12.43
2023-02-18T04:54:12.752Z,11.00
2023-02-18T04:59:19.232Z,9.82
2023-02-18T05:04:24.507Z,13.20
2023-02-18T05:09:32.377Z,9.75
2023-02-18T05:14:40.390Z,12.60
2023-02-18T05:19:45.791Z,13.02
2023-02-18T05:24:53.514Z,14.00
2023-02-18T05:29:58.693Z,12.75
2023-02-18T05:35:04.353Z,12.20
2023-02-18T05:40:13.928Z,10.48
2023-02-18T05:45:19.189Z,11.52
2023-02-18T05:50:24.338Z,13.00
2023-02-18T05:55:32.030Z,12.38
2023-02-18T06:00:37.247Z,11.27
2023-02-18T06:05:42.271Z,13.48
2023-02-18T06:10:50.068Z,13.55
2023-02-18T06:15:55.466Z,12.18
2023-02-18T06:21:01.004Z,15.35
2023-02-18T06:26:09.208Z,12.20
2023-02-18T06:31:14.842Z,11.02
2023-02-18T06:36:20.188Z,16.17
2023-02-18T06:41:27.948Z,11.55
2023-02-18T06:46:33.004Z,14.20
2023-02-18T06:51:38.160Z,11.45
2023-02-18T06:56:53.048Z,16.30
2023-02-18T07:01:58.221Z,15.52
2023-02-18T07:07:04.024Z,17.23
2023-02-18T07:12:11.960Z,16.63
2023-02-18T07:17:17.063Z,16.90
2023-02-18T07:22:22.160Z,12.98
2023-02-18T07:27:50.608Z,17.00
2023-02-18T07:32:59.518Z,12.60
2023-02-18T07:38:05.575Z,14.68
2023-02-18T07:43:13.176Z,12.35
2023-02-18T07:48:19.378Z,14.30
2023-02-18T07:53:24.440Z,13.55
2023-02-18T07:58:34.834Z,15.02
2023-02-18T08:03:40.356Z,16.48
2023-02-18T08:08:46.023Z,17.75
2023-02-18T08:13:53.732Z,18.70
2023-02-18T08:19:02.048Z,18.30
2023-02-18T08:24:08.306Z,19.63
2023-02-18T08:29:16.338Z,21.65
2023-02-18T08:39:26.552Z,23.48
2023-02-18T08:44:34.380Z,22.73
2023-02-18T08:49:39.642Z,18.73
2023-02-18T08:54:44.698Z,26.40
2023-02-18T08:59:52.852Z,23.52
2023-02-18T09:04:58.058Z,23.20
2023-02-18T09:10:03.600Z,23.85
2023-02-18T09:15:12.548Z,28.27
2023-02-18T09:20:18.408Z,28.27
2023-02-18T09:25:24.147Z,25.77
2023-02-18T09:30:34.345Z,27.80
2023-02-18T09:35:43.388Z,21.58
2023-02-18T09:40:51.113Z,24.85
2023-02-18T09:46:01.142Z,30.85
2023-02-18T09:51:07.144Z,33.72
2023-02-18T09:56:14.297Z,32.53
2023-02-18T10:01:26.149Z,32.67
2023-02-18T10:06:35.257Z,35.05
2023-02-18T10:11:44.569Z,27.27
2023-02-18T10:16:53.460Z,33.45
2023-02-18T10:21:59.450Z,34.95
2023-02-18T10:27:07.908Z,26.05
2023-02-18T10:32:23.220Z,29.45
2023-02-18T10:37:47.109Z,30.00
2023-02-18T10:43:05.926Z,25.23
2023-02-18T10:48:25.375Z,27.38
2023-02-18T10:53:37.006Z,26.33
2023-02-18T10:58:46.827Z,28.67
2023-02-18T11:03:56.096Z,26.15
2023-02-18T11:09:02.008Z,26.95
2023-02-18T11:14:09.192Z,29.30
2023-02-18T11:19:38.507Z,24.25
2023-02-18T11:24:49.075Z,26.98
2023-02-18T11:29:56.780Z,39.70
2023-02-18T11:40:16.776Z,24.33
2023-02-18T11:45:34.722Z,23.25
2023-02-18T11:50:42.846Z,23.08
2023-02-18T11:55:58.233Z,22.80
2023-02-18T12:01:05.337Z,29.50
2023-02-18T12:06:19.388Z,24.60
2023-02-18T12:11:31.774Z,34.05
2023-02-18T12:16:42.749Z,25.60
2023-02-18T12:21:59.099Z,21.60
2023-02-18T12:27:16.816Z,55.33
2023-02-18T12:32:38.804Z,23.80
2023-02-18T12:38:01.124Z,28.33
2023-02-18T12:43:14.300Z,20.90
2023-02-18T12:48:36.745Z,19.45
2023-02-18T12:54:12.986Z,22.88
2023-02-18T12:59:33.772Z,20.83
2023-02-18T13:04:51.661Z,18.30
2023-02-18T13:10:35.664Z,18.77
2023-02-18T13:15:43.262Z,22.40
2023-02-18T13:20:51.249Z,29.05
2023-02-18T13:26:10.665Z,21.50
2023-02-18T13:31:26.725Z,23.15
2023-02-18T13:36:40.302Z,20.10
2023-02-18T13:41:48.434Z,20.38
2023-02-18T13:46:55.467Z,21.15
2023-02-18T13:52:02.282Z,23.45
2023-02-18T13:57:17.976Z,21.75
2023-02-18T14:02:36.212Z,24.55
2023-02-18T14:07:54.283Z,23.38
2023-02-18T14:13:43.160Z,24.00
2023-02-18T14:19:05.039Z,24.23
2023-02-18T14:24:11.687Z,23.00
2023-02-18T14:29:31.213Z,22.52
2023-02-18T14:35:11.003Z,20.70
2023-02-18T14:40:27.321Z,30.88
2023-02-18T14:45:52.160Z,39.80
2023-02-18T14:50:57.816Z,28.75
2023-02-18T14:56:07.997Z,28.20
2023-02-18T15:01:22.987Z,32.25
2023-02-18T15:06:34.477Z,32.65
2023-02-18T15:11:42.868Z,28.23
2023-02-18T15:16:52.635Z,27.15
2023-02-18T15:21:59.905Z,26.02
2023-02-18T15:27:07.768Z,32.63
2023-02-18T15:32:24.578Z,26.58
2023-02-18T15:37:31.040Z,29.02
2023-02-18T15:42:38.516Z,34.03
2023-02-18T15:47:49.149Z,44.20
2023-02-18T15:52:56.505Z,73.95
2023-02-18T15:58:04.620Z,65.40
2023-02-18T16:03:19.544Z,64.55
2023-02-18T16:08:28.374Z,55.75
2023-02-18T16:13:35.188Z,62.17
2023-02-18T16:18:46.253Z,70.80
2023-02-18T16:23:58.999Z,68.38
2023-02-18T16:29:14.029Z,62.10
2023-02-18T16:34:22.618Z,74.50
2023-02-18T16:39:28.399Z,88.20
2023-02-18T16:44:36.150Z,75.13
2023-02-18T16:54:51.218Z,59.90
2023-02-18T16:59:57.188Z,62.03
2023-02-18T17:05:11.788Z,55.60
2023-02-18T17:10:23.467Z,58.63
2023-02-18T17:15:32.917Z,55.75
2023-02-18T17:20:41.441Z,55.97
2023-02-18T17:25:49.254Z,87.10
2023-02-18T17:31:00.549Z,110.43
2023-02-18T17:36:10.007Z,121.10
2023-02-18T17:41:18.941Z,158.68
2023-02-18T17:46:24.923Z,147.35
2023-02-18T17:51:36.026Z,151.98
2023-02-18T17:56:41.951Z,155.88
2023-02-18T18:01:47.957Z,139.90
2023-02-18T18:06:56.592Z,105.45
2023-02-18T18:12:02.323Z,98.22
2023-02-18T18:17:08.444Z,77.78
2023-02-18T18:22:30.777Z,70.93
2023-02-18T18:27:38.090Z,70.03
2023-02-18T18:32:44.150Z,66.50
2023-02-18T18:37:54.135Z,58.45
2023-02-18T18:43:02.280Z,41.08
2023-02-18T18:48:08.772Z,39.65
2023-02-18T18:53:22.704Z,38.47
2023-02-18T18:58:28.946Z,52.13
2023-02-18T19:03:36.634Z,44.88
2023-02-18T19:08:49.348Z,31.67
2023-02-18T19:13:56.188Z,32.58
2023-02-18T19:19:01.974Z,36.70
2023-02-18T19:24:10.737Z,36.17
2023-02-18T19:29:16.635Z,35.70
2023-02-18T19:34:23.731Z,40.58
2023-02-18T19:39:33.315Z,33.83
2023-02-18T19:44:40.223Z,38.38
2023-02-18T19:49:46.369Z,37.67
2023-02-18T19:54:54.692Z,34.10
2023-02-18T20:00:01.364Z,35.92
2023-02-18T20:05:07.513Z,36.00
2023-02-18T20:10:17.709Z,40.28
2023-02-18T20:15:23.935Z,37.50
2023-02-18T20:20:31.279Z,49.33
2023-02-18T20:25:40.064Z,41.97
2023-02-18T20:30:46.451Z,38.17
2023-02-18T20:35:59.569Z,36.42
2023-02-18T20:41:12.484Z,39.97
2023-02-18T20:46:19.896Z,41.08
2023-02-18T20:51:26.321Z,38.55
2023-02-18T20:56:34.911Z,61.58
2023-02-18T21:01:41.236Z,44.50
2023-02-18T21:06:49.594Z,34.08
2023-02-18T21:11:58.131Z,37.85
2023-02-18T21:17:07.357Z,31.30
2023-02-18T21:22:14.312Z,39.22
2023-02-18T21:27:25.023Z,34.85
2023-02-18T21:32:32.846Z,28.38
2023-02-18T21:37:38.704Z,26.13
2023-02-18T21:42:55.310Z,25.20
2023-02-18T21:48:21.042Z,25.85
2023-02-18T21:53:26.850Z,23.02
2023-02-18T21:58:35.469Z,21.02
2023-02-18T22:03:41.334Z,23.27
2023-02-18T22:08:47.136Z,23.65
2023-02-18T22:13:55.506Z,28.35
2023-02-18T22:19:02.732Z,26.45
2023-02-18T22:24:09.286Z,22.70
2023-02-18T22:29:19.173Z,27.95
2023-02-18T22:34:25.793Z,25.13
2023-02-18T22:39:32.446Z,27.60
2023-02-18T22:44:40.900Z,27.75
2023-02-18T22:49:46.607Z,24.63
2023-02-18T22:54:52.977Z,25.75
2023-02-18T23:00:02.995Z,25.23
2023-02-18T23:05:08.897Z,25.55
2023-02-18T23:10:14.751Z,30.08
2023-02-18T23:15:23.465Z,26.92
2023-02-18T23:20:40.938Z,25.83
2023-02-18T23:25:46.318Z,27.90
2023-02-18T23:30:54.121Z,25.15
2023-02-18T23:35:59.230Z,25.45
2023-02-18T23:41:04.378Z,29.35
2023-02-18T23:46:11.999Z,28.83
2023-02-18T23:51:18.258Z,25.55
2023-02-18T23:56:24.775Z,25.52
